Weather at Umberto Modiano Airport

Public forecast

Using degrees Celsius for public forecast. Weather courtesy of forecast.io.

Current aviation weather report (METAR) for Umberto Modiano Airport

Retrieved UTC (0 seconds ago):

Closest aviation forecast (TAF) to Umberto Modiano Airport

Forecast is more than 12 hours old.

Closest forecast is Cabo Frio Airport, 10.9 nm (20.3 km) SW. Retrieved 2020/10/23 18:36 UTC (4 days ago):

TAF TAF SBCB 231630Z 2318/2406 07015G25KT 9999 FEW025 TX26/2318Z TN20/2406Z BECMG 2319/2322 07012KT RMK PHC